sensor_id;sensor_type;location;lat;lon;timestamp;P1;P2;P0
77411;PMS7003;66484;49.968;19.140;2023-04-25T00:01:06;17.67;14.67;12.67
77411;PMS7003;66484;49.968;19.140;2023-04-25T00:03:39;17.00;17.00;11.67
77411;PMS7003;66484;49.968;19.140;2023-04-25T00:06:07;21.33;19.33;13.00
77411;PMS7003;66484;49.968;19.140;2023-04-25T00:08:35;16.67;14.00;11.00
77411;PMS7003;66484;49.968;19.140;2023-04-25T00:11:02;19.00;17.00;11.33
77411;PMS7003;66484;49.968;19.140;2023-04-25T00:13:30;23.67;17.33;11.67
77411;PMS7003;66484;49.968;19.140;2023-04-25T00:15:57;20.67;20.67;11.67
77411;PMS7003;66484;49.968;19.140;2023-04-25T00:18:25;21.00;19.00;14.00
77411;PMS7003;66484;49.968;19.140;2023-04-25T00:20:55;22.67;18.33;10.33
77411;PMS7003;66484;49.968;19.140;2023-04-25T00:23:23;22.33;18.33;13.33
77411;PMS7003;66484;49.968;19.140;2023-04-25T00:25:50;24.00;20.00;13.00
77411;PMS7003;66484;49.968;19.140;2023-04-25T00:28:18;27.25;25.00;15.00
77411;PMS7003;66484;49.968;19.140;2023-04-25T00:30:45;23.33;22.00;15.67
77411;PMS7003;66484;49.968;19.140;2023-04-25T00:33:12;26.00;22.00;18.33
77411;PMS7003;66484;49.968;19.140;2023-04-25T00:35:39;35.25;29.50;18.00
77411;PMS7003;66484;49.968;19.140;2023-04-25T00:38:07;32.00;28.00;20.75
77411;PMS7003;66484;49.968;19.140;2023-04-25T00:40:34;35.25;30.50;19.25
77411;PMS7003;66484;49.968;19.140;2023-04-25T00:43:02;38.25;29.75;21.25
77411;PMS7003;66484;49.968;19.140;2023-04-25T00:45:29;32.50;32.50;18.00
77411;PMS7003;66484;49.968;19.140;2023-04-25T00:47:57;42.00;35.50;22.25
77411;PMS7003;66484;49.968;19.140;2023-04-25T00:50:24;29.00;29.00;21.33
77411;PMS7003;66484;49.968;19.140;2023-04-25T00:52:51;31.50;28.75;18.75
77411;PMS7003;66484;49.968;19.140;2023-04-25T00:55:18;29.00;25.33;14.67
77411;PMS7003;66484;49.968;19.140;2023-04-25T00:57:46;39.25;32.75;20.50
77411;PMS7003;66484;49.968;19.140;2023-04-25T01:00:14;28.33;26.33;17.00
77411;PMS7003;66484;49.968;19.140;2023-04-25T01:02:41;30.33;23.00;14.67
77411;PMS7003;66484;49.968;19.140;2023-04-25T01:05:09;26.33;23.67;14.00
77411;PMS7003;66484;49.968;19.140;2023-04-25T01:07:37;27.33;27.00;18.33
77411;PMS7003;66484;49.968;19.140;2023-04-25T01:10:05;28.25;24.75;16.50
77411;PMS7003;66484;49.968;19.140;2023-04-25T01:12:33;31.00;28.00;17.50
77411;PMS7003;66484;49.968;19.140;2023-04-25T01:15:00;24.50;22.00;15.75
77411;PMS7003;66484;49.968;19.140;2023-04-25T01:17:28;30.50;26.00;16.25
77411;PMS7003;66484;49.968;19.140;2023-04-25T01:19:55;29.00;23.75;17.50
77411;PMS7003;66484;49.968;19.140;2023-04-25T01:22:23;10.50;10.50;5.25
77411;PMS7003;66484;49.968;19.140;2023-04-25T01:24:50;30.67;24.00;13.33
77411;PMS7003;66484;49.968;19.140;2023-04-25T01:27:17;17.00;13.00;8.33
77411;PMS7003;66484;49.968;19.140;2023-04-25T01:29:44;22.50;21.25;15.50
77411;PMS7003;66484;49.968;19.140;2023-04-25T01:32:12;24.00;17.75;11.25
77411;PMS7003;66484;49.968;19.140;2023-04-25T01:34:40;24.50;19.50;15.00
77411;PMS7003;66484;49.968;19.140;2023-04-25T01:37:07;18.75;18.50;14.75
77411;PMS7003;66484;49.968;19.140;2023-04-25T01:39:34;19.50;18.00;13.00
77411;PMS7003;66484;49.968;19.140;2023-04-25T01:42:02;11.67;11.67;8.33
77411;PMS7003;66484;49.968;19.140;2023-04-25T01:44:29;17.00;16.25;10.50
77411;PMS7003;66484;49.968;19.140;2023-04-25T01:46:56;14.33;12.67;10.00
77411;PMS7003;66484;49.968;19.140;2023-04-25T01:49:23;9.75;8.75;7.50
77411;PMS7003;66484;49.968;19.140;2023-04-25T01:51:50;8.50;8.50;6.00
77411;PMS7003;66484;49.968;19.140;2023-04-25T01:54:17;9.25;7.75;7.00
77411;PMS7003;66484;49.968;19.140;2023-04-25T01:56:49;13.50;12.50;9.75
77411;PMS7003;66484;49.968;19.140;2023-04-25T01:59:18;14.50;12.50;10.00
77411;PMS7003;66484;49.968;19.140;2023-04-25T02:01:46;13.75;11.00;9.50
77411;PMS7003;66484;49.968;19.140;2023-04-25T02:04:14;12.25;11.00;7.50
77411;PMS7003;66484;49.968;19.140;2023-04-25T02:06:41;12.50;11.00;9.00
77411;PMS7003;66484;49.968;19.140;2023-04-25T02:09:08;12.25;10.25;8.25
77411;PMS7003;66484;49.968;19.140;2023-04-25T02:11:36;14.50;12.75;10.25
77411;PMS7003;66484;49.968;19.140;2023-04-25T02:14:03;14.75;14.75;11.25
77411;PMS7003;66484;49.968;19.140;2023-04-25T02:16:30;15.75;13.50;9.50
77411;PMS7003;66484;49.968;19.140;2023-04-25T02:18:57;16.25;16.25;10.50
77411;PMS7003;66484;49.968;19.140;2023-04-25T02:21:25;11.00;9.75;8.75
77411;PMS7003;66484;49.968;19.140;2023-04-25T02:23:53;17.00;14.25;10.75
77411;PMS7003;66484;49.968;19.140;2023-04-25T02:26:20;12.50;12.25;8.50
77411;PMS7003;66484;49.968;19.140;2023-04-25T02:28:48;18.50;16.25;10.50
77411;PMS7003;66484;49.968;19.140;2023-04-25T02:31:15;18.25;15.75;11.00
77411;PMS7003;66484;49.968;19.140;2023-04-25T02:33:42;18.75;15.75;10.25
77411;PMS7003;66484;49.968;19.140;2023-04-25T02:36:10;15.50;15.50;10.50
77411;PMS7003;66484;49.968;19.140;2023-04-25T02:38:37;12.25;11.00;9.75
77411;PMS7003;66484;49.968;19.140;2023-04-25T02:41:05;18.50;17.00;13.00
77411;PMS7003;66484;49.968;19.140;2023-04-25T02:43:32;16.00;14.25;10.25
77411;PMS7003;66484;49.968;19.140;2023-04-25T02:45:59;9.50;9.50;8.25
77411;PMS7003;66484;49.968;19.140;2023-04-25T02:48:26;15.50;15.50;12.25
77411;PMS7003;66484;49.968;19.140;2023-04-25T02:50:53;14.50;13.75;10.75
77411;PMS7003;66484;49.968;19.140;2023-04-25T02:53:20;12.25;12.25;8.00
77411;PMS7003;66484;49.968;19.140;2023-04-25T02:55:48;14.50;13.50;9.50
77411;PMS7003;66484;49.968;19.140;2023-04-25T02:58:15;11.75;11.75;8.75
77411;PMS7003;66484;49.968;19.140;2023-04-25T03:00:43;15.00;13.25;9.75
77411;PMS7003;66484;49.968;19.140;2023-04-25T03:03:10;10.00;10.00;8.00
77411;PMS7003;66484;49.968;19.140;2023-04-25T03:05:37;13.00;11.00;9.25
77411;PMS7003;66484;49.968;19.140;2023-04-25T03:08:04;8.75;5.25;1.25
77411;PMS7003;66484;49.968;19.140;2023-04-25T03:10:32;9.00;8.50;5.50
77411;PMS7003;66484;49.968;19.140;2023-04-25T03:12:59;9.25;8.25;5.75
77411;PMS7003;66484;49.968;19.140;2023-04-25T03:15:26;4.00;3.25;2.50
77411;PMS7003;66484;49.968;19.140;2023-04-25T03:17:53;12.50;11.50;8.00
77411;PMS7003;66484;49.968;19.140;2023-04-25T03:20:21;11.25;11.25;9.00
77411;PMS7003;66484;49.968;19.140;2023-04-25T03:22:48;12.25;11.75;10.25
77411;PMS7003;66484;49.968;19.140;2023-04-25T03:25:16;24.00;23.00;16.00
77411;PMS7003;66484;49.968;19.140;2023-04-25T03:27:43;11.50;10.50;8.50
77411;PMS7003;66484;49.968;19.140;2023-04-25T03:30:10;15.50;11.00;9.25
77411;PMS7003;66484;49.968;19.140;2023-04-25T03:32:37;11.25;9.25;9.25
77411;PMS7003;66484;49.968;19.140;2023-04-25T03:35:04;12.00;10.75;8.00
77411;PMS7003;66484;49.968;19.140;2023-04-25T03:37:32;10.25;10.00;9.00
77411;PMS7003;66484;49.968;19.140;2023-04-25T03:39:59;11.75;11.75;9.25
77411;PMS7003;66484;49.968;19.140;2023-04-25T03:42:26;13.75;12.75;9.00
77411;PMS7003;66484;49.968;19.140;2023-04-25T03:44:53;12.00;11.00;8.75
77411;PMS7003;66484;49.968;19.140;2023-04-25T03:47:21;14.00;13.00;9.50
77411;PMS7003;66484;49.968;19.140;2023-04-25T03:49:48;10.75;9.50;9.00
77411;PMS7003;66484;49.968;19.140;2023-04-25T03:52:18;9.25;9.25;7.75
77411;PMS7003;66484;49.968;19.140;2023-04-25T03:54:45;9.50;8.50;4.75
77411;PMS7003;66484;49.968;19.140;2023-04-25T03:57:12;13.50;13.50;11.00
77411;PMS7003;66484;49.968;19.140;2023-04-25T03:59:40;12.75;9.75;7.00
77411;PMS7003;66484;49.968;19.140;2023-04-25T04:02:07;16.00;15.75;10.25
77411;PMS7003;66484;49.968;19.140;2023-04-25T04:04:34;16.25;16.00;12.25
77411;PMS7003;66484;49.968;19.140;2023-04-25T04:07:02;12.50;12.00;10.25
77411;PMS7003;66484;49.968;19.140;2023-04-25T04:09:29;16.75;16.75;13.00
77411;PMS7003;66484;49.968;19.140;2023-04-25T04:11:57;17.50;16.50;12.75
77411;PMS7003;66484;49.968;19.140;2023-04-25T04:14:24;16.75;16.50;13.00
77411;PMS7003;66484;49.968;19.140;2023-04-25T04:16:51;9.50;9.50;8.50
77411;PMS7003;66484;49.968;19.140;2023-04-25T04:19:19;14.25;13.75;9.50
77411;PMS7003;66484;49.968;19.140;2023-04-25T04:21:46;15.50;15.00;12.00
77411;PMS7003;66484;49.968;19.140;2023-04-25T04:24:14;17.25;14.00;10.25
77411;PMS7003;66484;49.968;19.140;2023-04-25T04:26:43;17.75;11.25;10.00
77411;PMS7003;66484;49.968;19.140;2023-04-25T04:29:13;12.50;12.50;10.00
77411;PMS7003;66484;49.968;19.140;2023-04-25T04:31:50;10.75;9.75;8.25
77411;PMS7003;66484;49.968;19.140;2023-04-25T04:34:19;14.50;11.75;10.25
77411;PMS7003;66484;49.968;19.140;2023-04-25T04:36:47;8.00;8.00;6.00
77411;PMS7003;66484;49.968;19.140;2023-04-25T04:39:14;12.75;12.75;10.00
77411;PMS7003;66484;49.968;19.140;2023-04-25T04:41:42;10.00;9.00;7.75
77411;PMS7003;66484;49.968;19.140;2023-04-25T04:44:09;12.00;12.00;9.00
77411;PMS7003;66484;49.968;19.140;2023-04-25T04:46:37;15.25;13.50;11.00
77411;PMS7003;66484;49.968;19.140;2023-04-25T04:49:09;11.00;11.00;8.25
77411;PMS7003;66484;49.968;19.140;2023-04-25T04:51:37;13.50;11.50;9.50
77411;PMS7003;66484;49.968;19.140;2023-04-25T04:54:04;18.25;16.75;10.50
77411;PMS7003;66484;49.968;19.140;2023-04-25T04:56:31;14.00;11.00;8.50
77411;PMS7003;66484;49.968;19.140;2023-04-25T04:58:59;13.25;9.75;8.50
77411;PMS7003;66484;49.968;19.140;2023-04-25T05:01:26;15.25;12.50;10.00
77411;PMS7003;66484;49.968;19.140;2023-04-25T05:03:54;14.00;11.50;9.75
77411;PMS7003;66484;49.968;19.140;2023-04-25T05:06:27;14.25;11.25;8.50
77411;PMS7003;66484;49.968;19.140;2023-04-25T05:08:56;11.50;11.50;9.00
77411;PMS7003;66484;49.968;19.140;2023-04-25T05:11:23;13.75;10.00;9.00
77411;PMS7003;66484;49.968;19.140;2023-04-25T05:13:52;12.50;9.50;8.00
77411;PMS7003;66484;49.968;19.140;2023-04-25T05:16:20;14.75;10.25;9.00
77411;PMS7003;66484;49.968;19.140;2023-04-25T05:18:47;11.00;11.00;9.00
77411;PMS7003;66484;49.968;19.140;2023-04-25T05:21:14;11.67;10.67;8.00
77411;PMS7003;66484;49.968;19.140;2023-04-25T05:23:42;9.67;9.67;9.00
77411;PMS7003;66484;49.968;19.140;2023-04-25T05:26:09;20.50;17.25;10.00
77411;PMS7003;66484;49.968;19.140;2023-04-25T05:28:41;15.00;12.33;7.33
77411;PMS7003;66484;49.968;19.140;2023-04-25T05:31:11;14.33;12.67;9.33
77411;PMS7003;66484;49.968;19.140;2023-04-25T05:33:39;12.67;11.33;9.33
77411;PMS7003;66484;49.968;19.140;2023-04-25T05:36:07;9.67;9.67;8.33
77411;PMS7003;66484;49.968;19.140;2023-04-25T05:38:35;8.00;8.00;6.33
77411;PMS7003;66484;49.968;19.140;2023-04-25T05:41:01;16.00;12.00;9.00
77411;PMS7003;66484;49.968;19.140;2023-04-25T05:43:29;10.67;10.00;9.33
77411;PMS7003;66484;49.968;19.140;2023-04-25T05:45:56;11.00;11.00;10.00
77411;PMS7003;66484;49.968;19.140;2023-04-25T05:48:24;16.33;12.00;8.00
77411;PMS7003;66484;49.968;19.140;2023-04-25T05:50:51;11.00;8.33;5.33
77411;PMS7003;66484;49.968;19.140;2023-04-25T05:53:19;8.00;8.00;8.00
77411;PMS7003;66484;49.968;19.140;2023-04-25T05:55:46;9.00;8.00;5.33
77411;PMS7003;66484;49.968;19.140;2023-04-25T05:58:13;8.67;8.67;6.67
77411;PMS7003;66484;49.968;19.140;2023-04-25T06:00:40;8.67;8.67;5.33
77411;PMS7003;66484;49.968;19.140;2023-04-25T06:03:08;10.00;10.00;8.00
77411;PMS7003;66484;49.968;19.140;2023-04-25T06:05:43;11.00;7.00;5.33
77411;PMS7003;66484;49.968;19.140;2023-04-25T06:08:11;10.00;9.33;9.00
77411;PMS7003;66484;49.968;19.140;2023-04-25T06:10:37;12.67;5.67;5.00
77411;PMS7003;66484;49.968;19.140;2023-04-25T06:13:05;5.67;5.67;5.00
77411;PMS7003;66484;49.968;19.140;2023-04-25T06:15:32;6.00;6.00;4.00
77411;PMS7003;66484;49.968;19.140;2023-04-25T06:17:59;15.33;10.00;7.67
77411;PMS7003;66484;49.968;19.140;2023-04-25T06:20:26;7.33;5.00;4.33
77411;PMS7003;66484;49.968;19.140;2023-04-25T06:22:54;10.33;9.00;6.33
77411;PMS7003;66484;49.968;19.140;2023-04-25T06:25:21;11.00;10.00;8.67
77411;PMS7003;66484;49.968;19.140;2023-04-25T06:27:48;11.33;9.67;4.00
77411;PMS7003;66484;49.968;19.140;2023-04-25T06:30:16;15.33;14.33;7.00
77411;PMS7003;66484;49.968;19.140;2023-04-25T06:32:45;6.33;4.67;2.00
77411;PMS7003;66484;49.968;19.140;2023-04-25T06:35:12;9.67;9.67;6.33
77411;PMS7003;66484;49.968;19.140;2023-04-25T06:37:39;8.67;8.67;5.33
77411;PMS7003;66484;49.968;19.140;2023-04-25T06:40:07;10.00;7.67;5.33
77411;PMS7003;66484;49.968;19.140;2023-04-25T06:42:35;13.67;10.33;7.33
77411;PMS7003;66484;49.968;19.140;2023-04-25T06:45:03;8.00;7.33;3.67
77411;PMS7003;66484;49.968;19.140;2023-04-25T06:47:31;9.00;5.00;5.00
77411;PMS7003;66484;49.968;19.140;2023-04-25T06:49:58;6.00;6.00;5.00
77411;PMS7003;66484;49.968;19.140;2023-04-25T06:52:26;10.33;6.00;3.33
77411;PMS7003;66484;49.968;19.140;2023-04-25T06:54:52;10.67;9.00;6.00
77411;PMS7003;66484;49.968;19.140;2023-04-25T06:57:20;6.67;6.67;6.00
77411;PMS7003;66484;49.968;19.140;2023-04-25T06:59:47;9.00;9.00;7.00
77411;PMS7003;66484;49.968;19.140;2023-04-25T07:02:14;9.33;8.33;5.00
77411;PMS7003;66484;49.968;19.140;2023-04-25T07:04:42;9.00;9.00;8.00
77411;PMS7003;66484;49.968;19.140;2023-04-25T07:07:09;6.67;6.67;4.00
77411;PMS7003;66484;49.968;19.140;2023-04-25T07:09:36;12.33;11.00;7.00
77411;PMS7003;66484;49.968;19.140;2023-04-25T07:12:04;9.33;9.00;5.33
77411;PMS7003;66484;49.968;19.140;2023-04-25T07:14:31;9.00;7.33;4.00
77411;PMS7003;66484;49.968;19.140;2023-04-25T07:16:58;11.33;9.67;6.00
77411;PMS7003;66484;49.968;19.140;2023-04-25T07:19:26;8.33;8.33;6.00
77411;PMS7003;66484;49.968;19.140;2023-04-25T07:21:56;11.67;11.67;9.00
77411;PMS7003;66484;49.968;19.140;2023-04-25T07:24:23;8.00;7.67;5.67
77411;PMS7003;66484;49.968;19.140;2023-04-25T07:26:50;12.00;9.33;6.00
77411;PMS7003;66484;49.968;19.140;2023-04-25T07:29:18;14.00;11.67;8.67
77411;PMS7003;66484;49.968;19.140;2023-04-25T07:31:45;11.33;9.67;9.00
77411;PMS7003;66484;49.968;19.140;2023-04-25T07:34:12;10.00;9.00;6.00
77411;PMS7003;66484;49.968;19.140;2023-04-25T07:36:40;7.00;7.00;5.33
77411;PMS7003;66484;49.968;19.140;2023-04-25T07:39:07;7.00;7.00;6.67
77411;PMS7003;66484;49.968;19.140;2023-04-25T07:41:35;3.67;3.67;2.67
77411;PMS7003;66484;49.968;19.140;2023-04-25T07:44:03;12.33;9.67;7.00
77411;PMS7003;66484;49.968;19.140;2023-04-25T07:46:30;12.00;9.33;7.00
77411;PMS7003;66484;49.968;19.140;2023-04-25T07:48:57;8.33;7.00;5.67
77411;PMS7003;66484;49.968;19.140;2023-04-25T07:51:25;9.00;6.00;5.33
77411;PMS7003;66484;49.968;19.140;2023-04-25T07:53:52;8.00;6.00;6.00
77411;PMS7003;66484;49.968;19.140;2023-04-25T07:56:20;7.67;7.67;6.00
77411;PMS7003;66484;49.968;19.140;2023-04-25T07:58:48;9.67;8.33;7.33
77411;PMS7003;66484;49.968;19.140;2023-04-25T08:01:16;12.00;12.00;6.67
77411;PMS7003;66484;49.968;19.140;2023-04-25T08:03:43;11.67;11.67;9.00
77411;PMS7003;66484;49.968;19.140;2023-04-25T08:06:11;10.00;8.00;3.00
77411;PMS7003;66484;49.968;19.140;2023-04-25T08:08:38;10.00;6.00;5.00
77411;PMS7003;66484;49.968;19.140;2023-04-25T08:11:06;7.67;6.67;4.33
77411;PMS7003;66484;49.968;19.140;2023-04-25T08:13:33;10.67;9.33;6.67
77411;PMS7003;66484;49.968;19.140;2023-04-25T08:16:01;12.00;11.33;10.00
77411;PMS7003;66484;49.968;19.140;2023-04-25T08:18:28;9.33;7.67;5.33
77411;PMS7003;66484;49.968;19.140;2023-04-25T08:20:55;13.00;11.33;7.33
77411;PMS7003;66484;49.968;19.140;2023-04-25T08:23:22;8.00;7.67;7.00
77411;PMS7003;66484;49.968;19.140;2023-04-25T08:25:49;8.00;8.00;5.67
77411;PMS7003;66484;49.968;19.140;2023-04-25T08:28:16;11.33;9.00;7.00
77411;PMS7003;66484;49.968;19.140;2023-04-25T08:30:44;20.67;13.33;8.67
77411;PMS7003;66484;49.968;19.140;2023-04-25T08:33:11;10.33;7.00;5.33
77411;PMS7003;66484;49.968;19.140;2023-04-25T08:35:38;10.67;10.00;8.67
77411;PMS7003;66484;49.968;19.140;2023-04-25T08:38:06;14.00;13.00;8.00
77411;PMS7003;66484;49.968;19.140;2023-04-25T08:40:35;10.67;9.33;8.33
77411;PMS7003;66484;49.968;19.140;2023-04-25T08:43:05;12.33;11.00;7.00
77411;PMS7003;66484;49.968;19.140;2023-04-25T08:45:38;13.33;12.33;9.00
77411;PMS7003;66484;49.968;19.140;2023-04-25T08:48:13;13.00;12.00;7.00
77411;PMS7003;66484;49.968;19.140;2023-04-25T08:50:45;11.33;9.67;7.33
77411;PMS7003;66484;49.968;19.140;2023-04-25T08:53:17;11.00;10.00;7.00
77411;PMS7003;66484;49.968;19.140;2023-04-25T08:55:49;6.67;5.67;4.67
77411;PMS7003;66484;49.968;19.140;2023-04-25T08:58:17;10.33;10.00;7.33
77411;PMS7003;66484;49.968;19.140;2023-04-25T09:00:45;9.33;8.00;8.00
77411;PMS7003;66484;49.968;19.140;2023-04-25T09:03:13;12.33;9.33;6.67
77411;PMS7003;66484;49.968;19.140;2023-04-25T09:05:42;9.67;8.67;7.67
77411;PMS7003;66484;49.968;19.140;2023-04-25T09:08:12;11.67;10.00;6.67
77411;PMS7003;66484;49.968;19.140;2023-04-25T09:10:40;9.00;9.00;6.33
77411;PMS7003;66484;49.968;19.140;2023-04-25T09:13:14;12.75;11.75;7.75
77411;PMS7003;66484;49.968;19.140;2023-04-25T09:15:54;6.00;5.00;3.00
77411;PMS7003;66484;49.968;19.140;2023-04-25T09:18:29;9.67;9.67;6.67
77411;PMS7003;66484;49.968;19.140;2023-04-25T09:21:04;9.67;9.67;7.33
77411;PMS7003;66484;49.968;19.140;2023-04-25T09:23:41;10.33;9.00;6.33
77411;PMS7003;66484;49.968;19.140;2023-04-25T09:26:15;12.33;10.67;7.33
77411;PMS7003;66484;49.968;19.140;2023-04-25T09:28:44;9.67;7.00;5.33
77411;PMS7003;66484;49.968;19.140;2023-04-25T09:31:20;7.33;7.33;6.00
77411;PMS7003;66484;49.968;19.140;2023-04-25T09:33:58;7.00;7.00;6.00
77411;PMS7003;66484;49.968;19.140;2023-04-25T09:36:27;9.00;9.00;6.00
77411;PMS7003;66484;49.968;19.140;2023-04-25T09:38:57;10.00;8.33;6.67
77411;PMS7003;66484;49.968;19.140;2023-04-25T09:41:26;9.00;9.00;8.00
77411;PMS7003;66484;49.968;19.140;2023-04-25T09:43:56;12.33;9.00;7.00
77411;PMS7003;66484;49.968;19.140;2023-04-25T09:46:32;10.00;9.00;7.33
77411;PMS7003;66484;49.968;19.140;2023-04-25T09:49:05;8.00;7.67;6.00
77411;PMS7003;66484;49.968;19.140;2023-04-25T09:51:33;11.00;7.00;6.00
77411;PMS7003;66484;49.968;19.140;2023-04-25T09:54:00;9.00;8.67;6.00
77411;PMS7003;66484;49.968;19.140;2023-04-25T09:56:28;14.00;14.00;7.33
77411;PMS7003;66484;49.968;19.140;2023-04-25T09:58:57;11.33;11.33;8.00
77411;PMS7003;66484;49.968;19.140;2023-04-25T10:01:25;14.00;10.00;8.00
77411;PMS7003;66484;49.968;19.140;2023-04-25T10:03:52;11.33;10.33;6.00
77411;PMS7003;66484;49.968;19.140;2023-04-25T10:06:23;9.00;8.00;7.67
77411;PMS7003;66484;49.968;19.140;2023-04-25T10:08:52;12.00;11.00;7.00
77411;PMS7003;66484;49.968;19.140;2023-04-25T10:11:21;7.00;7.00;6.67
77411;PMS7003;66484;49.968;19.140;2023-04-25T10:13:50;12.33;10.00;7.67
77411;PMS7003;66484;49.968;19.140;2023-04-25T10:16:18;8.33;7.33;7.00
77411;PMS7003;66484;49.968;19.140;2023-04-25T10:18:46;3.67;3.67;3.00
77411;PMS7003;66484;49.968;19.140;2023-04-25T10:21:14;11.67;10.33;6.33
77411;PMS7003;66484;49.968;19.140;2023-04-25T10:23:43;4.67;3.00;2.00
77411;PMS7003;66484;49.968;19.140;2023-04-25T10:26:12;6.00;5.00;4.00
77411;PMS7003;66484;49.968;19.140;2023-04-25T10:29:00;6.00;6.00;5.00
77411;PMS7003;66484;49.968;19.140;2023-04-25T10:31:31;8.00;7.33;6.00
77411;PMS7003;66484;49.968;19.140;2023-04-25T10:33:59;6.67;6.67;6.00
77411;PMS7003;66484;49.968;19.140;2023-04-25T10:36:27;7.00;7.00;5.67
77411;PMS7003;66484;49.968;19.140;2023-04-25T10:38:58;8.00;5.33;4.00
77411;PMS7003;66484;49.968;19.140;2023-04-25T10:41:46;6.33;6.33;4.00
77411;PMS7003;66484;49.968;19.140;2023-04-25T10:44:14;7.67;7.67;6.00
77411;PMS7003;66484;49.968;19.140;2023-04-25T10:46:43;8.33;8.33;7.00
77411;PMS7003;66484;49.968;19.140;2023-04-25T10:49:11;8.67;8.67;7.00
77411;PMS7003;66484;49.968;19.140;2023-04-25T10:52:18;12.00;9.67;7.33
77411;PMS7003;66484;49.968;19.140;2023-04-25T10:54:55;8.33;6.67;5.67
77411;PMS7003;66484;49.968;19.140;2023-04-25T10:57:31;6.00;6.00;5.67
77411;PMS7003;66484;49.968;19.140;2023-04-25T11:00:07;12.00;10.00;7.33
77411;PMS7003;66484;49.968;19.140;2023-04-25T11:02:40;11.33;11.33;6.67
77411;PMS7003;66484;49.968;19.140;2023-04-25T11:05:22;5.67;5.67;5.00
77411;PMS7003;66484;49.968;19.140;2023-04-25T11:07:53;7.00;7.00;5.67
77411;PMS7003;66484;49.968;19.140;2023-04-25T11:10:33;5.33;4.33;4.00
77411;PMS7003;66484;49.968;19.140;2023-04-25T11:13:02;7.33;7.33;5.33
77411;PMS7003;66484;49.968;19.140;2023-04-25T11:15:29;7.67;7.67;4.67
77411;PMS7003;66484;49.968;19.140;2023-04-25T11:20:52;9.00;6.67;5.33
77411;PMS7003;66484;49.968;19.140;2023-04-25T11:23:20;6.00;6.00;4.67
77411;PMS7003;66484;49.968;19.140;2023-04-25T11:25:47;7.33;7.33;6.00
77411;PMS7003;66484;49.968;19.140;2023-04-25T11:28:20;7.33;7.33;5.67
77411;PMS7003;66484;49.968;19.140;2023-04-25T11:30:50;8.00;8.00;6.67
77411;PMS7003;66484;49.968;19.140;2023-04-25T11:33:18;5.67;5.67;4.67
77411;PMS7003;66484;49.968;19.140;2023-04-25T11:35:51;5.33;5.33;5.00
77411;PMS7003;66484;49.968;19.140;2023-04-25T11:38:20;5.67;4.00;4.00
77411;PMS7003;66484;49.968;19.140;2023-04-25T11:40:51;6.67;5.00;4.00
77411;PMS7003;66484;49.968;19.140;2023-04-25T11:43:25;5.33;5.33;4.33
77411;PMS7003;66484;49.968;19.140;2023-04-25T11:45:52;5.00;3.00;1.67
77411;PMS7003;66484;49.968;19.140;2023-04-25T11:48:19;12.00;9.67;7.00
77411;PMS7003;66484;49.968;19.140;2023-04-25T11:50:53;6.67;5.67;4.67
77411;PMS7003;66484;49.968;19.140;2023-04-25T11:53:20;6.33;6.33;5.67
77411;PMS7003;66484;49.968;19.140;2023-04-25T11:55:48;4.67;4.67;3.67
77411;PMS7003;66484;49.968;19.140;2023-04-25T11:58:17;6.67;5.67;5.00
77411;PMS7003;66484;49.968;19.140;2023-04-25T12:00:46;7.00;6.00;4.67
77411;PMS7003;66484;49.968;19.140;2023-04-25T12:03:17;7.00;7.00;5.00
77411;PMS7003;66484;49.968;19.140;2023-04-25T12:05:45;4.33;4.33;4.00
77411;PMS7003;66484;49.968;19.140;2023-04-25T12:08:13;8.00;6.00;3.67
77411;PMS7003;66484;49.968;19.140;2023-04-25T12:10:42;5.33;5.00;4.00
77411;PMS7003;66484;49.968;19.140;2023-04-25T12:13:21;8.67;6.00;5.33
77411;PMS7003;66484;49.968;19.140;2023-04-25T12:15:50;6.00;6.00;5.00
77411;PMS7003;66484;49.968;19.140;2023-04-25T12:18:20;6.33;5.33;3.67
77411;PMS7003;66484;49.968;19.140;2023-04-25T12:20:52;5.00;5.00;4.00
77411;PMS7003;66484;49.968;19.140;2023-04-25T12:23:29;7.00;7.00;6.00
77411;PMS7003;66484;49.968;19.140;2023-04-25T12:25:57;5.00;4.00;3.00
77411;PMS7003;66484;49.968;19.140;2023-04-25T12:28:25;7.00;5.00;4.00
77411;PMS7003;66484;49.968;19.140;2023-04-25T12:31:02;7.00;4.00;3.33
77411;PMS7003;66484;49.968;19.140;2023-04-25T12:33:37;7.00;7.00;4.67
77411;PMS7003;66484;49.968;19.140;2023-04-25T12:36:06;8.00;5.67;3.00
77411;PMS7003;66484;49.968;19.140;2023-04-25T12:38:39;7.33;5.67;5.00
77411;PMS7003;66484;49.968;19.140;2023-04-25T12:41:08;6.67;5.33;3.00
77411;PMS7003;66484;49.968;19.140;2023-04-25T12:43:35;2.00;2.00;1.00
77411;PMS7003;66484;49.968;19.140;2023-04-25T12:46:04;6.00;6.00;5.00
77411;PMS7003;66484;49.968;19.140;2023-04-25T12:48:31;7.67;7.00;6.00
77411;PMS7003;66484;49.968;19.140;2023-04-25T12:50:58;6.00;4.00;4.00
77411;PMS7003;66484;49.968;19.140;2023-04-25T12:53:28;6.00;3.67;2.00
77411;PMS7003;66484;49.968;19.140;2023-04-25T12:56:01;5.67;5.67;5.00
77411;PMS7003;66484;49.968;19.140;2023-04-25T12:58:28;9.00;8.33;5.67
77411;PMS7003;66484;49.968;19.140;2023-04-25T13:00:56;6.00;4.00;4.00
77411;PMS7003;66484;49.968;19.140;2023-04-25T13:03:23;7.00;7.00;5.67
77411;PMS7003;66484;49.968;19.140;2023-04-25T13:05:51;11.00;9.33;6.67
77411;PMS7003;66484;49.968;19.140;2023-04-25T13:08:19;8.67;8.67;6.00
77411;PMS7003;66484;49.968;19.140;2023-04-25T13:10:49;7.00;7.00;5.00
77411;PMS7003;66484;49.968;19.140;2023-04-25T13:13:17;5.67;5.67;5.00
77411;PMS7003;66484;49.968;19.140;2023-04-25T13:15:44;7.67;7.33;6.33
77411;PMS7003;66484;49.968;19.140;2023-04-25T13:18:11;9.67;8.67;6.00
77411;PMS7003;66484;49.968;19.140;2023-04-25T13:20:39;9.33;7.67;6.67
77411;PMS7003;66484;49.968;19.140;2023-04-25T13:23:06;6.00;6.00;4.67
77411;PMS7003;66484;49.968;19.140;2023-04-25T13:25:33;8.00;6.67;5.33
77411;PMS7003;66484;49.968;19.140;2023-04-25T13:28:01;8.00;6.33;5.67
77411;PMS7003;66484;49.968;19.140;2023-04-25T13:30:28;9.67;6.33;6.00
77411;PMS7003;66484;49.968;19.140;2023-04-25T13:32:56;6.67;6.33;4.33
77411;PMS7003;66484;49.968;19.140;2023-04-25T13:35:24;5.67;5.67;5.00
77411;PMS7003;66484;49.968;19.140;2023-04-25T13:37:52;7.00;7.00;6.00
77411;PMS7003;66484;49.968;19.140;2023-04-25T13:40:19;7.33;6.33;5.67
77411;PMS7003;66484;49.968;19.140;2023-04-25T13:42:50;9.67;6.33;5.33
77411;PMS7003;66484;49.968;19.140;2023-04-25T13:45:17;7.33;6.33;6.00
77411;PMS7003;66484;49.968;19.140;2023-04-25T13:47:45;8.33;7.00;5.33
77411;PMS7003;66484;49.968;19.140;2023-04-25T13:50:15;6.00;6.00;5.00
77411;PMS7003;66484;49.968;19.140;2023-04-25T13:52:43;8.00;8.00;6.00
77411;PMS7003;66484;49.968;19.140;2023-04-25T13:55:10;5.33;5.33;5.00
77411;PMS7003;66484;49.968;19.140;2023-04-25T13:57:38;5.00;5.00;4.67
77411;PMS7003;66484;49.968;19.140;2023-04-25T14:00:07;10.33;8.00;5.33
77411;PMS7003;66484;49.968;19.140;2023-04-25T14:02:36;3.33;3.33;3.00
77411;PMS7003;66484;49.968;19.140;2023-04-25T14:05:04;9.00;9.00;6.67